createdAt,value
2023-02-25T00:00:19.649Z,96.28
2023-02-25T00:02:52.472Z,96.13
2023-02-25T00:05:25.278Z,95.62
2023-02-25T00:07:57.384Z,95.70
2023-02-25T00:10:30.412Z,95.60
2023-02-25T00:13:17.433Z,95.37
2023-02-25T00:15:51.398Z,95.33
2023-02-25T00:18:27.190Z,95.63
2023-02-25T00:21:02.414Z,94.94
2023-02-25T00:23:37.840Z,95.42
2023-02-25T00:26:11.596Z,95.56
2023-02-25T00:28:45.071Z,96.09
2023-02-25T00:31:21.793Z,95.98
2023-02-25T00:33:55.662Z,96.24
2023-02-25T00:36:30.486Z,97.04
2023-02-25T00:39:02.881Z,97.03
2023-02-25T00:41:36.020Z,95.46
2023-02-25T00:44:08.412Z,94.72
2023-02-25T00:46:40.573Z,94.71
2023-02-25T00:49:31.407Z,93.35
2023-02-25T00:52:04.269Z,93.41
2023-02-25T00:54:36.726Z,93.64
2023-02-25T00:57:09.012Z,94.08
2023-02-25T00:59:41.055Z,93.71
2023-02-25T01:02:18.866Z,93.93
2023-02-25T01:04:51.052Z,93.34
2023-02-25T01:07:23.164Z,93.48
2023-02-25T01:09:59.093Z,92.42
2023-02-25T01:12:31.274Z,93.47
2023-02-25T01:15:04.451Z,93.07
2023-02-25T01:17:39.584Z,92.28
2023-02-25T01:20:20.073Z,92.42
2023-02-25T01:22:52.410Z,92.39
2023-02-25T01:25:25.974Z,90.74
2023-02-25T01:27:58.441Z,91.62
2023-02-25T01:30:35.904Z,90.46
2023-02-25T01:33:11.684Z,90.10
2023-02-25T01:35:44.017Z,90.69
2023-02-25T01:38:16.259Z,90.31
2023-02-25T01:40:49.908Z,90.99
2023-02-25T01:43:23.192Z,91.23
2023-02-25T01:46:00.494Z,90.55
2023-02-25T01:48:37.165Z,90.65
2023-02-25T01:51:13.250Z,91.54
2023-02-25T01:53:47.533Z,92.18
2023-02-25T01:56:23.547Z,91.04
2023-02-25T01:58:57.175Z,91.25
2023-02-25T02:01:35.730Z,91.46
2023-02-25T02:04:13.689Z,90.10
2023-02-25T02:06:49.132Z,91.27
2023-02-25T02:09:25.755Z,91.18
2023-02-25T02:12:03.725Z,90.70
2023-02-25T02:14:41.407Z,90.79
2023-02-25T02:17:31.762Z,91.17
2023-02-25T02:20:26.193Z,91.15
2023-02-25T02:23:25.802Z,89.32
2023-02-25T02:26:28.065Z,89.39
2023-02-25T02:29:38.837Z,89.17
2023-02-25T02:32:31.690Z,89.56
2023-02-25T02:35:31.879Z,88.41
2023-02-25T02:38:24.407Z,89.11
2023-02-25T02:41:36.009Z,88.25
2023-02-25T02:44:26.244Z,89.40
2023-02-25T02:47:03.105Z,89.39
2023-02-25T02:49:56.835Z,88.91
2023-02-25T02:52:35.186Z,87.38
2023-02-25T02:55:22.309Z,88.06
2023-02-25T02:58:20.518Z,88.94
2023-02-25T03:01:17.708Z,88.72
2023-02-25T03:04:00.058Z,88.01
2023-02-25T03:06:41.568Z,88.34
2023-02-25T03:09:27.102Z,88.01
2023-02-25T03:12:00.965Z,87.22
2023-02-25T03:14:33.125Z,87.10
2023-02-25T03:17:11.617Z,88.50
2023-02-25T03:20:19.644Z,88.55
2023-02-25T03:22:56.699Z,88.47
2023-02-25T03:25:39.392Z,87.79
2023-02-25T03:28:23.577Z,86.82
2023-02-25T03:31:32.311Z,82.63
2023-02-25T03:34:15.041Z,81.95
2023-02-25T03:37:04.891Z,82.47
2023-02-25T03:39:40.446Z,82.33
2023-02-25T03:42:19.412Z,82.00
2023-02-25T03:44:56.409Z,81.82
2023-02-25T03:47:33.090Z,81.60
2023-02-25T03:50:30.949Z,78.97
2023-02-25T03:53:07.412Z,79.92
2023-02-25T03:55:39.581Z,79.91
2023-02-25T03:58:11.710Z,79.90
2023-02-25T04:00:46.461Z,80.42
2023-02-25T04:03:18.606Z,80.75
2023-02-25T04:05:50.562Z,80.70
2023-02-25T04:08:22.582Z,81.40
2023-02-25T04:10:54.637Z,81.71
2023-02-25T04:13:30.987Z,82.00
2023-02-25T04:16:03.184Z,80.63
2023-02-25T04:18:36.160Z,81.31
2023-02-25T04:21:10.058Z,81.84
2023-02-25T04:23:46.476Z,81.55
2023-02-25T04:26:19.224Z,81.45
2023-02-25T04:28:51.388Z,81.47
2023-02-25T04:31:23.758Z,81.15
2023-02-25T04:34:01.498Z,80.49
2023-02-25T04:36:38.381Z,80.54
2023-02-25T04:39:12.752Z,80.51
2023-02-25T04:41:45.748Z,80.70
2023-02-25T04:44:17.722Z,79.99
2023-02-25T04:46:53.152Z,80.31
2023-02-25T04:49:25.364Z,80.78
2023-02-25T04:52:00.120Z,80.12
2023-02-25T04:54:33.116Z,80.48
2023-02-25T04:57:08.043Z,80.39
2023-02-25T04:59:40.287Z,80.44
2023-02-25T05:02:12.400Z,80.65
2023-02-25T05:04:44.859Z,78.88
2023-02-25T05:07:17.002Z,79.91
2023-02-25T05:09:49.032Z,80.43
2023-02-25T05:12:24.316Z,80.99
2023-02-25T05:14:56.466Z,80.78
2023-02-25T05:17:36.810Z,82.25
2023-02-25T05:20:13.352Z,82.53
2023-02-25T05:22:48.658Z,82.76
2023-02-25T05:25:21.106Z,82.50
2023-02-25T05:27:55.808Z,82.80
2023-02-25T05:30:28.446Z,82.94
2023-02-25T05:33:00.547Z,83.31
2023-02-25T05:35:35.459Z,83.35
2023-02-25T05:38:07.688Z,82.57
2023-02-25T05:40:40.704Z,84.06
2023-02-25T05:43:12.658Z,84.13
2023-02-25T05:45:44.674Z,84.22
2023-02-25T05:48:16.733Z,84.16
2023-02-25T05:50:52.315Z,83.31
2023-02-25T05:53:24.289Z,83.45
2023-02-25T05:55:58.692Z,83.04
2023-02-25T05:58:33.648Z,82.16
2023-02-25T06:01:15.628Z,82.68
2023-02-25T06:04:01.397Z,81.67
2023-02-25T06:06:36.288Z,81.64
2023-02-25T06:09:10.493Z,82.38
2023-02-25T06:11:45.249Z,82.47
2023-02-25T06:14:18.807Z,80.35
2023-02-25T06:16:51.731Z,81.72
2023-02-25T06:19:27.641Z,81.54
2023-02-25T06:22:02.887Z,82.00
2023-02-25T06:24:34.923Z,82.50
2023-02-25T06:27:12.543Z,81.87
2023-02-25T06:29:49.866Z,80.96
2023-02-25T06:32:25.062Z,81.02
2023-02-25T06:34:57.956Z,79.89
2023-02-25T06:37:30.035Z,80.03
2023-02-25T06:40:02.069Z,78.75
2023-02-25T06:42:37.017Z,79.73
2023-02-25T06:45:13.186Z,79.24
2023-02-25T06:47:48.012Z,79.51
2023-02-25T06:50:20.575Z,80.91
2023-02-25T06:52:52.617Z,79.57
2023-02-25T06:55:24.603Z,78.11
2023-02-25T06:57:57.186Z,78.61
2023-02-25T07:00:35.126Z,79.85
2023-02-25T07:03:07.105Z,79.55
2023-02-25T07:05:42.705Z,79.73
2023-02-25T07:08:15.829Z,80.48
2023-02-25T07:10:48.115Z,80.24
2023-02-25T07:13:20.564Z,80.22
2023-02-25T07:16:01.458Z,81.58
2023-02-25T07:18:33.632Z,81.23
2023-02-25T07:21:08.008Z,81.58
2023-02-25T07:23:41.240Z,81.29
2023-02-25T07:26:16.740Z,81.44
2023-02-25T07:28:49.333Z,80.57
2023-02-25T07:31:23.482Z,82.25
2023-02-25T07:33:56.198Z,84.10
2023-02-25T07:36:30.837Z,83.84
2023-02-25T07:39:06.822Z,82.40
2023-02-25T07:41:52.717Z,83.03
2023-02-25T07:44:24.892Z,82.13
2023-02-25T07:46:59.866Z,80.71
2023-02-25T07:49:32.010Z,80.92
2023-02-25T07:52:04.233Z,81.96
2023-02-25T07:54:40.596Z,82.49
2023-02-25T07:57:12.660Z,80.83
2023-02-25T07:59:44.671Z,81.20
2023-02-25T08:02:19.444Z,81.15
2023-02-25T08:04:51.856Z,78.89
2023-02-25T08:07:28.840Z,78.32
2023-02-25T08:10:00.975Z,78.47
2023-02-25T08:12:35.893Z,79.12
2023-02-25T08:15:10.159Z,79.11
2023-02-25T08:17:42.338Z,78.36
2023-02-25T08:20:14.507Z,79.19
2023-02-25T08:22:46.540Z,77.95
2023-02-25T08:25:19.282Z,77.77
2023-02-25T08:27:51.502Z,76.07
2023-02-25T08:30:29.109Z,75.16
2023-02-25T08:33:01.257Z,77.76
2023-02-25T08:35:34.950Z,76.05
2023-02-25T08:38:06.986Z,75.27
2023-02-25T08:40:40.302Z,69.38
2023-02-25T08:43:13.653Z,69.26
2023-02-25T08:45:45.976Z,66.44
2023-02-25T08:48:19.177Z,63.77
2023-02-25T08:50:55.726Z,66.63
2023-02-25T08:53:28.097Z,62.36
2023-02-25T08:56:03.854Z,59.59
2023-02-25T08:58:37.208Z,60.56
2023-02-25T09:01:13.322Z,61.32
2023-02-25T09:03:54.194Z,62.53
2023-02-25T09:06:31.992Z,60.70
2023-02-25T09:09:24.853Z,59.62
2023-02-25T09:11:57.088Z,58.59
2023-02-25T09:14:29.810Z,58.03
2023-02-25T09:17:07.196Z,62.07
2023-02-25T09:19:40.909Z,60.67
2023-02-25T09:22:13.359Z,60.31
2023-02-25T09:24:50.607Z,59.09
2023-02-25T09:27:22.623Z,58.77
2023-02-25T09:29:54.629Z,56.80
2023-02-25T09:32:27.857Z,56.48
2023-02-25T09:35:02.941Z,54.88
2023-02-25T09:37:35.536Z,53.70
2023-02-25T09:40:09.642Z,52.75
2023-02-25T09:43:09.499Z,53.89
2023-02-25T09:45:47.342Z,53.48
2023-02-25T09:48:31.631Z,54.59
2023-02-25T09:51:27.444Z,52.87
2023-02-25T09:54:55.633Z,53.80
2023-02-25T09:57:32.236Z,53.36
2023-02-25T10:00:11.669Z,53.54
2023-02-25T10:02:53.294Z,54.58
2023-02-25T10:05:45.581Z,52.07
2023-02-25T10:08:52.354Z,49.69
2023-02-25T10:11:45.881Z,51.59
2023-02-25T10:14:52.038Z,53.16
2023-02-25T10:18:01.427Z,54.67
2023-02-25T10:20:58.672Z,52.71
2023-02-25T10:24:12.871Z,52.80
2023-02-25T10:26:50.994Z,54.91
2023-02-25T10:29:49.954Z,53.24
2023-02-25T10:32:32.501Z,50.92
2023-02-25T10:35:39.172Z,48.70
2023-02-25T10:38:15.386Z,50.27
2023-02-25T10:40:47.330Z,45.72
2023-02-25T10:43:24.217Z,39.69
2023-02-25T10:46:14.010Z,35.34
2023-02-25T10:49:38.867Z,31.60
2023-02-25T10:52:18.993Z,30.04
2023-02-25T10:54:54.693Z,29.53
2023-02-25T10:57:49.335Z,32.61
2023-02-25T11:00:30.601Z,35.11
2023-02-25T11:03:06.316Z,38.38
2023-02-25T11:05:45.755Z,40.20
2023-02-25T11:08:35.262Z,40.45
2023-02-25T11:11:34.029Z,43.12
2023-02-25T11:14:18.990Z,42.89
2023-02-25T11:17:21.305Z,43.37
2023-02-25T11:23:56.244Z,42.99
2023-02-25T11:26:35.868Z,43.60
2023-02-25T11:29:32.963Z,41.76
2023-02-25T11:36:51.157Z,42.28
2023-02-25T11:39:33.790Z,41.37
2023-02-25T11:42:25.705Z,40.76
2023-02-25T11:45:04.556Z,41.49
2023-02-25T11:47:39.254Z,42.48
2023-02-25T11:50:24.591Z,40.55
2023-02-25T11:53:37.414Z,40.21
2023-02-25T11:56:36.452Z,39.86
2023-02-25T11:59:46.745Z,40.28
2023-02-25T12:02:53.030Z,39.72
2023-02-25T12:05:47.070Z,40.90
2023-02-25T12:09:09.855Z,41.19
2023-02-25T12:12:03.277Z,41.74
2023-02-25T12:15:24.107Z,42.32
2023-02-25T12:18:50.341Z,43.27
2023-02-25T12:21:40.485Z,41.62
2023-02-25T12:24:49.995Z,41.31
2023-02-25T12:28:09.441Z,40.90
2023-02-25T12:31:32.070Z,40.19
2023-02-25T12:34:22.972Z,40.94
2023-02-25T12:37:16.828Z,42.56
2023-02-25T12:40:06.745Z,42.85
2023-02-25T12:42:57.377Z,43.54
2023-02-25T12:46:06.070Z,42.52
2023-02-25T12:48:59.266Z,40.66
2023-02-25T12:51:46.651Z,40.31
2023-02-25T12:54:36.146Z,40.28
2023-02-25T12:57:41.259Z,42.13
2023-02-25T13:00:51.135Z,41.32
2023-02-25T13:04:14.992Z,40.88
2023-02-25T13:07:49.874Z,41.08
2023-02-25T13:10:39.419Z,39.90
2023-02-25T13:13:56.377Z,40.38
2023-02-25T13:17:03.935Z,38.92
2023-02-25T13:20:12.842Z,39.18
2023-02-25T13:23:39.411Z,38.91
2023-02-25T13:26:49.906Z,39.29
2023-02-25T13:30:01.817Z,39.97
2023-02-25T13:33:11.179Z,41.00
2023-02-25T13:35:59.442Z,41.64
2023-02-25T13:39:28.022Z,40.35
2023-02-25T13:43:00.927Z,41.49
2023-02-25T13:46:19.861Z,40.34
2023-02-25T13:49:34.212Z,39.94
2023-02-25T13:52:49.318Z,38.65
2023-02-25T13:55:35.513Z,38.88
2023-02-25T13:58:24.462Z,38.46
2023-02-25T14:01:23.688Z,39.62
2023-02-25T14:04:30.505Z,39.50
2023-02-25T14:07:15.304Z,39.55
2023-02-25T14:09:50.165Z,39.85
2023-02-25T14:12:48.655Z,39.75
2023-02-25T14:15:57.396Z,39.54
2023-02-25T14:18:46.303Z,39.96
2023-02-25T14:22:21.872Z,39.83
2023-02-25T14:25:22.154Z,39.50
2023-02-25T14:28:16.587Z,38.67
2023-02-25T14:31:53.060Z,39.51
2023-02-25T14:34:44.819Z,39.31
2023-02-25T14:37:26.670Z,37.71
2023-02-25T14:40:53.226Z,38.41
2023-02-25T14:44:01.804Z,38.72
2023-02-25T14:46:48.587Z,38.94
2023-02-25T14:50:16.533Z,38.77
2023-02-25T14:53:31.504Z,38.49
2023-02-25T14:56:51.559Z,39.32
2023-02-25T14:59:47.614Z,39.93
2023-02-25T15:03:12.254Z,40.52
2023-02-25T15:06:36.877Z,39.78
2023-02-25T15:09:57.464Z,39.36
2023-02-25T15:12:49.706Z,40.21
2023-02-25T15:15:53.113Z,40.36
2023-02-25T15:19:03.396Z,39.20
2023-02-25T15:21:45.227Z,40.37
2023-02-25T15:24:26.540Z,40.45
2023-02-25T15:27:00.477Z,41.14
2023-02-25T15:29:32.709Z,40.08
2023-02-25T15:32:24.530Z,39.85
2023-02-25T15:35:03.674Z,38.95
2023-02-25T15:37:58.962Z,38.99
2023-02-25T15:40:33.949Z,40.17
2023-02-25T15:43:14.970Z,39.37
2023-02-25T15:46:11.297Z,39.62
2023-02-25T15:48:44.461Z,40.25
2023-02-25T15:51:43.636Z,40.17
2023-02-25T15:54:31.162Z,41.09
2023-02-25T15:57:25.072Z,39.57
2023-02-25T16:00:00.273Z,39.11
2023-02-25T16:02:39.044Z,40.30
2023-02-25T16:05:20.702Z,40.15
2023-02-25T16:08:22.940Z,41.26
2023-02-25T16:10:57.801Z,41.88
2023-02-25T16:13:36.063Z,41.57
2023-02-25T16:16:13.049Z,41.56
2023-02-25T16:18:50.678Z,41.71
2023-02-25T16:21:39.300Z,41.57
2023-02-25T16:24:15.169Z,43.33
2023-02-25T16:27:04.203Z,42.72
2023-02-25T16:29:51.089Z,43.38
2023-02-25T16:32:38.200Z,42.59
2023-02-25T16:35:36.157Z,43.73
2023-02-25T16:38:56.207Z,44.32
2023-02-25T16:41:37.709Z,44.27
2023-02-25T16:44:21.225Z,44.75
2023-02-25T16:46:55.198Z,44.88
2023-02-25T16:49:44.167Z,44.88
2023-02-25T16:52:30.948Z,44.42
2023-02-25T16:55:10.375Z,46.30
2023-02-25T16:58:23.654Z,46.00
2023-02-25T17:01:04.301Z,44.86
2023-02-25T17:03:49.668Z,44.78
2023-02-25T17:06:26.780Z,44.50
2023-02-25T17:09:01.338Z,45.13
2023-02-25T17:11:33.747Z,44.60
2023-02-25T17:14:07.512Z,43.47
2023-02-25T17:16:43.771Z,44.24
2023-02-25T17:19:20.714Z,44.23
2023-02-25T17:22:04.462Z,43.57
2023-02-25T17:24:38.802Z,44.39
2023-02-25T17:27:12.967Z,45.92
2023-02-25T17:29:45.233Z,49.98
2023-02-25T17:32:29.916Z,55.90
2023-02-25T17:35:05.044Z,61.26
2023-02-25T17:37:37.284Z,63.35
2023-02-25T17:40:10.438Z,66.94
2023-02-25T17:42:42.735Z,70.12
2023-02-25T17:45:55.285Z,74.27
2023-02-25T17:48:32.936Z,74.56
2023-02-25T17:51:08.435Z,75.39
2023-02-25T17:53:51.343Z,76.23
2023-02-25T17:56:44.638Z,76.06
2023-02-25T17:59:16.794Z,77.58
2023-02-25T18:01:55.642Z,80.14
2023-02-25T18:04:40.224Z,84.93
2023-02-25T18:07:32.757Z,89.14
2023-02-25T18:10:06.749Z,91.61
2023-02-25T18:12:40.048Z,93.15
2023-02-25T18:15:26.404Z,94.35
2023-02-25T18:18:05.072Z,96.10
2023-02-25T18:20:43.739Z,96.42
2023-02-25T18:23:22.007Z,97.99
2023-02-25T18:26:25.441Z,99.45
2023-02-25T18:28:58.581Z,99.45
2023-02-25T18:31:31.587Z,99.72
2023-02-25T18:34:04.030Z,100.00
2023-02-25T18:36:36.172Z,100.00
2023-02-25T18:39:12.968Z,100.00
2023-02-25T18:41:54.346Z,100.00
2023-02-25T18:44:26.378Z,100.00
2023-02-25T18:47:06.773Z,100.00
2023-02-25T18:49:38.881Z,100.00
2023-02-25T18:52:22.467Z,100.00
2023-02-25T18:54:57.719Z,100.00
2023-02-25T18:57:30.174Z,100.00
2023-02-25T19:00:02.309Z,100.00
2023-02-25T19:03:56.953Z,100.00
2023-02-25T19:06:30.993Z,100.00
2023-02-25T19:09:06.476Z,100.00
2023-02-25T19:15:30.436Z,100.00
2023-02-25T19:20:50.687Z,100.00
2023-02-25T19:23:23.005Z,100.00
2023-02-25T19:25:59.815Z,100.00
2023-02-25T19:28:32.609Z,100.00
2023-02-25T19:31:07.513Z,100.00
2023-02-25T19:33:40.023Z,100.00
2023-02-25T19:36:12.624Z,100.00
2023-02-25T19:38:44.868Z,100.00
2023-02-25T19:41:16.913Z,100.00
2023-02-25T19:43:51.287Z,99.83
2023-02-25T19:46:23.668Z,99.52
2023-02-25T19:48:56.417Z,99.19
2023-02-25T19:51:29.328Z,99.13
2023-02-25T19:54:01.336Z,98.84
2023-02-25T19:56:33.550Z,98.81
2023-02-25T19:59:06.844Z,97.80
2023-02-25T20:01:40.039Z,97.64
2023-02-25T20:04:15.136Z,98.53
2023-02-25T20:06:47.229Z,98.66
2023-02-25T20:09:19.653Z,98.57
2023-02-25T20:11:52.986Z,97.04
2023-02-25T20:14:28.062Z,98.83
2023-02-25T20:17:06.152Z,98.55
2023-02-25T20:19:38.253Z,97.61
2023-02-25T20:22:21.834Z,97.19
2023-02-25T20:24:54.634Z,95.16
2023-02-25T20:27:27.108Z,95.57
2023-02-25T20:29:59.177Z,94.12
2023-02-25T20:32:31.523Z,92.98
2023-02-25T20:35:04.002Z,93.78
2023-02-25T20:37:45.049Z,93.31
2023-02-25T20:40:17.924Z,92.49
2023-02-25T20:42:51.236Z,92.52
2023-02-25T20:45:24.314Z,92.11
2023-02-25T20:47:56.368Z,93.33
2023-02-25T20:50:29.667Z,92.97
2023-02-25T20:53:02.039Z,93.01
2023-02-25T20:55:36.643Z,92.07
2023-02-25T20:58:10.531Z,91.82
2023-02-25T21:00:42.733Z,91.73
2023-02-25T21:03:14.844Z,91.20
2023-02-25T21:05:47.133Z,90.22
2023-02-25T21:08:19.328Z,89.00
2023-02-25T21:10:51.286Z,88.51
2023-02-25T21:13:24.516Z,87.40
2023-02-25T21:16:06.217Z,88.45
2023-02-25T21:18:56.896Z,88.09
2023-02-25T21:21:31.639Z,87.42
2023-02-25T21:24:10.408Z,87.38
2023-02-25T21:26:43.653Z,86.13
2023-02-25T21:29:16.289Z,85.51
2023-02-25T21:31:50.364Z,83.49
2023-02-25T21:34:22.693Z,84.29
2023-02-25T21:37:01.347Z,85.21
2023-02-25T21:39:33.633Z,83.17
2023-02-25T21:42:05.782Z,82.68
2023-02-25T21:44:39.943Z,82.64
2023-02-25T21:47:12.242Z,81.42
2023-02-25T21:49:51.549Z,81.97
2023-02-25T21:52:25.218Z,81.75
2023-02-25T21:54:59.094Z,80.35
2023-02-25T21:57:31.328Z,79.72
2023-02-25T22:00:06.728Z,79.32
2023-02-25T22:02:39.308Z,80.56
2023-02-25T22:05:12.367Z,80.06
2023-02-25T22:07:44.574Z,80.16
2023-02-25T22:10:30.411Z,79.15
2023-02-25T22:13:04.176Z,80.49
2023-02-25T22:15:36.502Z,79.70
2023-02-25T22:18:08.498Z,78.82
2023-02-25T22:20:40.891Z,79.12
2023-02-25T22:23:13.049Z,79.94
2023-02-25T22:25:45.278Z,79.00
2023-02-25T22:28:17.427Z,78.65
2023-02-25T22:30:51.091Z,76.99
2023-02-25T22:33:36.794Z,77.75
2023-02-25T22:36:17.352Z,77.76
2023-02-25T22:38:59.323Z,79.09
2023-02-25T22:41:35.364Z,78.73
2023-02-25T22:44:12.438Z,78.71
2023-02-25T22:46:44.849Z,76.66
2023-02-25T22:49:17.132Z,78.28
2023-02-25T22:51:50.488Z,78.31
2023-02-25T22:54:23.500Z,78.72
2023-02-25T22:56:58.560Z,77.77
2023-02-25T22:59:30.557Z,78.00
2023-02-25T23:02:03.295Z,76.92
2023-02-25T23:04:35.605Z,78.17
2023-02-25T23:07:13.372Z,79.32
2023-02-25T23:09:45.957Z,79.30
2023-02-25T23:12:19.107Z,80.06
2023-02-25T23:14:51.909Z,79.90
2023-02-25T23:17:23.922Z,78.03
2023-02-25T23:20:00.468Z,78.07
2023-02-25T23:22:34.807Z,78.81
2023-02-25T23:25:07.874Z,78.95
2023-02-25T23:27:39.944Z,79.46
2023-02-25T23:30:12.849Z,79.03
2023-02-25T23:32:46.309Z,79.12
2023-02-25T23:35:21.526Z,77.99
2023-02-25T23:37:53.559Z,78.49
2023-02-25T23:40:26.042Z,78.25
2023-02-25T23:43:00.255Z,77.31
2023-02-25T23:45:32.922Z,77.63
2023-02-25T23:48:05.327Z,77.68
2023-02-25T23:50:37.489Z,78.79
2023-02-25T23:53:09.616Z,78.16
2023-02-25T23:55:43.949Z,77.73
2023-02-25T23:58:16.143Z,77.59
